createdAt,value
2023-03-31T00:01:09.099Z,99434.00
2023-03-31T00:03:38.101Z,99432.00
2023-03-31T00:06:06.813Z,99431.00
2023-03-31T00:08:35.651Z,99435.00
2023-03-31T00:11:06.710Z,99431.00
2023-03-31T00:13:34.879Z,99430.00
2023-03-31T00:16:05.741Z,99435.00
2023-03-31T00:18:34.885Z,99423.00
2023-03-31T00:21:08.646Z,99424.00
2023-03-31T00:23:36.473Z,99413.00
2023-03-31T00:26:10.188Z,99408.00
2023-03-31T00:28:38.057Z,99403.00
2023-03-31T00:31:05.884Z,99404.00
2023-03-31T00:33:34.719Z,99399.00
2023-03-31T00:36:05.832Z,99392.00
2023-03-31T00:38:34.031Z,99390.00
2023-03-31T00:41:03.779Z,99381.00
2023-03-31T00:43:34.725Z,99397.00
2023-03-31T00:46:14.918Z,99389.00
2023-03-31T00:48:48.723Z,99390.00
2023-03-31T00:51:19.838Z,99387.00
2023-03-31T00:53:54.813Z,99372.00
2023-03-31T00:56:22.468Z,99365.00
2023-03-31T00:58:50.213Z,99368.00
2023-03-31T01:01:23.897Z,99362.00
2023-03-31T01:03:53.617Z,99354.00
2023-03-31T01:06:22.978Z,99356.00
2023-03-31T01:08:51.346Z,99347.00
2023-03-31T01:11:20.643Z,99345.00
2023-03-31T01:13:51.035Z,99345.00
2023-03-31T01:16:18.598Z,99343.00
2023-03-31T01:18:48.871Z,99340.00
2023-03-31T01:21:46.779Z,99343.00
2023-03-31T01:24:46.826Z,99336.00
2023-03-31T01:27:48.430Z,99326.00
2023-03-31T01:30:52.767Z,99327.00
2023-03-31T01:33:48.043Z,99323.00
2023-03-31T01:36:48.294Z,99315.00
2023-03-31T01:39:53.931Z,99314.00
2023-03-31T01:42:29.406Z,99305.00
2023-03-31T01:45:02.488Z,99304.00
2023-03-31T01:47:40.012Z,99294.00
2023-03-31T01:50:15.403Z,99298.00
2023-03-31T01:52:46.945Z,99294.00
2023-03-31T01:55:20.531Z,99287.00
2023-03-31T01:57:53.644Z,99277.00
2023-03-31T02:00:29.065Z,99273.00
2023-03-31T02:03:00.989Z,99266.00
2023-03-31T02:05:35.170Z,99257.00
2023-03-31T02:08:07.416Z,99263.00
2023-03-31T02:10:36.738Z,99251.00
2023-03-31T02:13:06.873Z,99250.00
2023-03-31T02:15:37.868Z,99249.00
2023-03-31T02:18:10.751Z,99249.00
2023-03-31T02:20:41.376Z,99247.00
2023-03-31T02:23:10.781Z,99241.00
2023-03-31T02:25:45.632Z,99241.00
2023-03-31T02:28:18.606Z,99244.00
2023-03-31T02:30:53.844Z,99229.00
2023-03-31T02:33:21.328Z,99233.00
2023-03-31T02:35:48.848Z,99229.00
2023-03-31T02:38:16.783Z,99227.00
2023-03-31T02:40:44.487Z,99230.00
2023-03-31T02:43:13.093Z,99224.00
2023-03-31T02:45:44.044Z,99226.00
2023-03-31T02:48:16.294Z,99224.00
2023-03-31T02:51:17.221Z,99226.00
2023-03-31T02:54:05.490Z,99222.00
2023-03-31T02:56:49.591Z,99215.00
2023-03-31T02:59:29.241Z,99227.00
2023-03-31T03:02:13.920Z,99224.00
2023-03-31T03:05:01.518Z,99228.00
2023-03-31T03:07:36.973Z,99207.00
2023-03-31T03:10:10.110Z,99205.00
2023-03-31T03:12:48.998Z,99198.00
2023-03-31T03:15:22.369Z,99199.00
2023-03-31T03:17:51.097Z,99199.00
2023-03-31T03:20:20.819Z,99197.00
2023-03-31T03:22:48.410Z,99194.00
2023-03-31T03:25:17.433Z,99199.00
2023-03-31T03:27:44.684Z,99185.00
2023-03-31T03:30:13.628Z,99181.00
2023-03-31T03:32:42.161Z,99179.00
2023-03-31T03:35:10.390Z,99176.00
2023-03-31T03:37:38.105Z,99181.00
2023-03-31T03:40:06.679Z,99194.00
2023-03-31T03:42:34.569Z,99177.00
2023-03-31T03:45:02.052Z,99171.00
2023-03-31T03:47:29.532Z,99183.00
2023-03-31T03:49:57.579Z,99172.00
2023-03-31T03:52:24.803Z,99166.00
2023-03-31T03:54:52.090Z,99166.00
2023-03-31T03:57:19.726Z,99159.00
2023-03-31T03:59:47.181Z,99149.00
2023-03-31T04:02:15.043Z,99143.00
2023-03-31T04:04:42.389Z,99142.00
2023-03-31T04:07:10.383Z,99139.00
2023-03-31T04:09:37.630Z,99140.00
2023-03-31T04:12:05.392Z,99127.00
2023-03-31T04:14:32.703Z,99132.00
2023-03-31T04:17:00.034Z,99130.00
2023-03-31T04:19:27.255Z,99132.00
2023-03-31T04:21:58.342Z,99140.00
2023-03-31T04:24:30.001Z,99133.00
2023-03-31T04:26:57.731Z,99121.00
2023-03-31T04:29:26.244Z,99120.00
2023-03-31T04:31:58.120Z,99116.00
2023-03-31T04:34:34.279Z,99118.00
2023-03-31T04:37:05.396Z,99113.00
2023-03-31T04:39:34.067Z,99121.00
2023-03-31T04:42:01.994Z,99110.00
2023-03-31T04:44:29.853Z,99102.00
2023-03-31T04:47:02.365Z,99109.00
2023-03-31T04:49:32.864Z,99098.00
2023-03-31T04:52:00.312Z,99086.00
2023-03-31T04:54:27.965Z,99100.00
2023-03-31T04:56:56.387Z,99088.00
2023-03-31T04:59:23.904Z,99080.00
2023-03-31T05:01:51.436Z,99080.00
2023-03-31T05:04:18.953Z,99070.00
2023-03-31T05:06:49.160Z,99066.00
2023-03-31T05:09:16.915Z,99066.00
2023-03-31T05:11:44.315Z,99064.00
2023-03-31T05:14:13.040Z,99056.00
2023-03-31T05:16:41.373Z,99039.00
2023-03-31T05:19:08.802Z,99056.00
2023-03-31T05:21:37.640Z,99047.00
2023-03-31T05:24:05.244Z,99039.00
2023-03-31T05:26:32.514Z,99030.00
2023-03-31T05:28:59.861Z,99031.00
2023-03-31T05:31:28.688Z,99023.00
2023-03-31T05:33:56.397Z,99017.00
2023-03-31T05:36:24.138Z,99021.00
2023-03-31T05:38:51.869Z,99007.00
2023-03-31T05:41:21.347Z,99005.00
2023-03-31T05:43:49.206Z,98999.00
2023-03-31T05:46:17.836Z,98990.00
2023-03-31T05:48:46.283Z,98988.00
2023-03-31T05:51:14.481Z,98975.00
2023-03-31T05:53:42.002Z,98979.00
2023-03-31T05:56:10.339Z,98974.00
2023-03-31T05:58:38.383Z,98973.00
2023-03-31T06:01:08.844Z,98965.00
2023-03-31T06:03:50.324Z,98968.00
2023-03-31T06:06:25.149Z,98956.00
2023-03-31T06:09:03.133Z,98953.00
2023-03-31T06:11:38.046Z,98954.00
2023-03-31T06:14:09.005Z,98951.00
2023-03-31T06:16:39.435Z,98943.00
2023-03-31T06:19:07.606Z,98934.00
2023-03-31T06:21:45.051Z,98932.00
2023-03-31T06:24:21.290Z,98933.00
2023-03-31T06:26:48.822Z,98928.00
2023-03-31T06:29:22.759Z,98924.00
2023-03-31T06:31:59.242Z,98919.00
2023-03-31T06:34:54.674Z,98921.00
2023-03-31T06:37:39.597Z,98928.00
2023-03-31T06:40:21.965Z,98916.00
2023-03-31T06:42:52.836Z,98910.00
2023-03-31T06:45:22.138Z,98913.00
2023-03-31T06:48:01.932Z,98908.00
2023-03-31T06:50:41.661Z,98905.00
2023-03-31T06:53:14.006Z,98905.00
2023-03-31T06:55:49.353Z,98901.00
2023-03-31T06:58:25.197Z,98904.00
2023-03-31T07:00:57.465Z,98912.00
2023-03-31T07:03:32.645Z,98913.00
2023-03-31T07:06:23.672Z,98921.00
2023-03-31T07:09:04.324Z,98920.00
2023-03-31T07:11:48.356Z,98913.00
2023-03-31T07:14:21.876Z,98915.00
2023-03-31T07:17:14.946Z,98904.00
2023-03-31T07:19:51.513Z,98915.00
2023-03-31T07:22:34.060Z,98907.00
2023-03-31T07:25:04.609Z,98905.00
2023-03-31T07:27:40.979Z,98899.00
2023-03-31T07:30:29.535Z,98898.00
2023-03-31T07:33:03.034Z,98876.00
2023-03-31T07:35:35.853Z,98868.00
2023-03-31T07:38:19.313Z,98865.00
2023-03-31T07:41:07.580Z,98860.00
2023-03-31T07:46:37.564Z,98868.00
2023-03-31T07:49:09.484Z,98855.00
2023-03-31T07:51:45.467Z,98850.00
2023-03-31T07:54:24.707Z,98847.00
2023-03-31T07:57:29.889Z,98843.00
2023-03-31T08:00:11.537Z,98849.00
2023-03-31T08:02:53.531Z,98851.00
2023-03-31T08:05:31.292Z,98849.00
2023-03-31T08:08:14.608Z,98851.00
2023-03-31T08:10:49.772Z,98858.00
2023-03-31T08:13:53.942Z,98862.00
2023-03-31T08:16:56.432Z,98860.00
2023-03-31T08:22:37.258Z,98852.00
2023-03-31T08:26:04.642Z,98855.00
2023-03-31T08:31:45.462Z,98854.00
2023-03-31T08:34:34.828Z,98847.00
2023-03-31T08:37:28.481Z,98839.00
2023-03-31T08:43:49.671Z,98836.00
2023-03-31T08:49:43.613Z,98827.00
2023-03-31T08:52:42.953Z,98825.00
2023-03-31T08:58:38.243Z,98823.00
2023-03-31T09:05:18.610Z,98802.00
2023-03-31T09:12:20.478Z,98799.00
2023-03-31T09:15:01.793Z,98794.00
2023-03-31T09:17:44.043Z,98795.00
2023-03-31T09:20:17.606Z,98773.00
2023-03-31T09:23:09.404Z,98775.00
2023-03-31T09:25:56.376Z,98781.00
2023-03-31T09:28:47.063Z,98771.00
2023-03-31T09:31:44.643Z,98773.00
2023-03-31T09:34:44.031Z,98765.00
2023-03-31T09:37:31.942Z,98769.00
2023-03-31T09:40:14.376Z,98760.00
2023-03-31T09:42:57.666Z,98752.00
2023-03-31T09:45:39.327Z,98747.00
2023-03-31T09:48:32.348Z,98743.00
2023-03-31T09:51:25.922Z,98743.00
2023-03-31T09:57:37.325Z,98738.00
2023-03-31T10:00:20.853Z,98743.00
2023-03-31T10:06:04.695Z,98728.00
2023-03-31T10:08:44.624Z,98721.00
2023-03-31T10:11:26.951Z,98713.00
2023-03-31T10:14:07.679Z,98719.00
2023-03-31T10:16:55.934Z,98715.00
2023-03-31T10:19:39.434Z,98719.00
2023-03-31T10:22:17.554Z,98720.00
2023-03-31T10:25:03.069Z,98707.00
2023-03-31T10:27:48.539Z,98708.00
2023-03-31T10:30:53.180Z,98701.00
2023-03-31T10:33:37.203Z,98693.00
2023-03-31T10:37:03.209Z,98699.00
2023-03-31T10:39:55.590Z,98695.00
2023-03-31T10:42:40.172Z,98687.00
2023-03-31T10:45:37.456Z,98687.00
2023-03-31T10:48:20.216Z,98679.00
2023-03-31T10:54:25.064Z,98673.00
2023-03-31T11:00:55.276Z,98657.00
2023-03-31T11:03:47.826Z,98663.00
2023-03-31T11:06:34.388Z,98657.00
2023-03-31T11:09:25.985Z,98656.00
2023-03-31T11:12:25.842Z,98640.00
2023-03-31T11:15:24.101Z,98642.00
2023-03-31T11:18:29.475Z,98630.00
2023-03-31T11:21:28.351Z,98631.00
2023-03-31T11:24:29.420Z,98621.00
2023-03-31T11:27:37.624Z,98609.00
2023-03-31T11:30:15.755Z,98607.00
2023-03-31T11:32:57.184Z,98606.00
2023-03-31T11:35:44.926Z,98605.00
2023-03-31T11:38:32.929Z,98603.00
2023-03-31T11:41:07.272Z,98605.00
2023-03-31T11:43:43.691Z,98594.00
2023-03-31T11:46:15.073Z,98597.00
2023-03-31T11:48:50.432Z,98598.00
2023-03-31T11:51:22.996Z,98588.00
2023-03-31T11:54:00.384Z,98581.00
2023-03-31T11:56:35.176Z,98579.00
2023-03-31T11:59:04.007Z,98584.00
2023-03-31T12:01:46.293Z,98582.00
2023-03-31T12:04:32.894Z,98580.00
2023-03-31T12:07:04.604Z,98574.00
2023-03-31T12:09:38.286Z,98572.00
2023-03-31T12:12:12.626Z,98560.00
2023-03-31T12:14:45.887Z,98561.00
2023-03-31T12:17:15.533Z,98554.00
2023-03-31T12:19:55.690Z,98552.00
2023-03-31T12:22:28.280Z,98547.00
2023-03-31T12:25:03.324Z,98528.00
2023-03-31T12:27:47.140Z,98529.00
2023-03-31T12:30:35.071Z,98528.00
2023-03-31T12:33:06.459Z,98519.00
2023-03-31T12:35:47.377Z,98512.00
2023-03-31T12:38:34.643Z,98518.00
2023-03-31T12:41:16.804Z,98515.00
2023-03-31T12:44:08.882Z,98511.00
2023-03-31T12:46:57.977Z,98506.00
2023-03-31T12:50:15.719Z,98498.00
2023-03-31T12:53:02.635Z,98490.00
2023-03-31T12:55:40.176Z,98486.00
2023-03-31T12:58:41.022Z,98488.00
2023-03-31T13:01:14.434Z,98474.00
2023-03-31T13:03:51.122Z,98467.00
2023-03-31T13:06:51.097Z,98459.00
2023-03-31T13:09:55.824Z,98457.00
2023-03-31T13:12:28.414Z,98447.00
2023-03-31T13:15:02.580Z,98442.00
2023-03-31T13:17:36.154Z,98436.00
2023-03-31T13:20:26.953Z,98437.00
2023-03-31T13:23:01.980Z,98438.00
2023-03-31T13:25:50.608Z,98442.00
2023-03-31T13:28:31.977Z,98430.00
2023-03-31T13:31:01.766Z,98433.00
2023-03-31T13:33:38.123Z,98422.00
2023-03-31T13:36:41.223Z,98412.00
2023-03-31T13:39:32.488Z,98412.00
2023-03-31T13:42:16.987Z,98412.00
2023-03-31T13:45:18.037Z,98410.00
2023-03-31T13:48:05.078Z,98412.00
2023-03-31T13:50:56.490Z,98412.00
2023-03-31T13:53:45.422Z,98407.00
2023-03-31T13:56:54.128Z,98401.00
2023-03-31T13:59:55.288Z,98402.00
2023-03-31T14:02:49.944Z,98408.00
2023-03-31T14:05:34.450Z,98405.00
2023-03-31T14:08:07.834Z,98409.00
2023-03-31T14:10:39.660Z,98407.00
2023-03-31T14:13:28.402Z,98412.00
2023-03-31T14:16:09.927Z,98412.00
2023-03-31T14:18:58.946Z,98410.00
2023-03-31T14:21:40.707Z,98408.00
2023-03-31T14:24:36.161Z,98406.00
2023-03-31T14:30:34.108Z,98407.00
2023-03-31T14:33:22.266Z,98406.00
2023-03-31T14:36:05.472Z,98404.00
2023-03-31T14:38:37.909Z,98403.00
2023-03-31T14:41:18.367Z,98395.00
2023-03-31T14:43:49.745Z,98390.00
2023-03-31T14:46:21.212Z,98391.00
2023-03-31T14:48:50.515Z,98380.00
2023-03-31T14:51:24.501Z,98374.00
2023-03-31T14:53:56.941Z,98365.00
2023-03-31T14:56:33.044Z,98371.00
2023-03-31T14:59:01.097Z,98368.00
2023-03-31T15:01:36.043Z,98368.00
2023-03-31T15:04:12.539Z,98364.00
2023-03-31T15:06:46.521Z,98370.00
2023-03-31T15:09:19.815Z,98364.00
2023-03-31T15:11:47.676Z,98364.00
2023-03-31T15:14:15.183Z,98362.00
2023-03-31T15:16:44.360Z,98361.00
2023-03-31T15:19:15.589Z,98353.00
2023-03-31T15:21:44.777Z,98356.00
2023-03-31T15:24:13.405Z,98350.00
2023-03-31T15:26:47.613Z,98347.00
2023-03-31T15:29:19.813Z,98348.00
2023-03-31T15:31:47.491Z,98356.00
2023-03-31T15:34:19.131Z,98349.00
2023-03-31T15:36:48.686Z,98356.00
2023-03-31T15:39:16.044Z,98354.00
2023-03-31T15:41:44.397Z,98356.00
2023-03-31T15:44:39.620Z,98356.00
2023-03-31T15:47:13.652Z,98354.00
2023-03-31T15:49:49.464Z,98357.00
2023-03-31T15:52:24.751Z,98356.00
2023-03-31T15:54:52.675Z,98357.00
2023-03-31T15:57:21.616Z,98355.00
2023-03-31T15:59:55.893Z,98358.00
2023-03-31T16:02:26.075Z,98370.00
2023-03-31T16:04:58.251Z,98395.00
2023-03-31T16:07:29.662Z,98389.00
2023-03-31T16:10:01.629Z,98391.00
2023-03-31T16:12:33.135Z,98385.00
2023-03-31T16:15:06.176Z,98378.00
2023-03-31T16:17:39.673Z,98371.00
2023-03-31T16:20:11.460Z,98363.00
2023-03-31T16:22:43.507Z,98358.00
2023-03-31T16:25:14.031Z,98360.00
2023-03-31T16:27:46.217Z,98366.00
2023-03-31T16:30:16.002Z,98374.00
2023-03-31T16:33:00.849Z,98373.00
2023-03-31T16:35:34.013Z,98370.00
2023-03-31T16:38:02.476Z,98373.00
2023-03-31T16:40:32.126Z,98369.00
2023-03-31T16:43:10.740Z,98373.00
2023-03-31T16:45:38.141Z,98374.00
2023-03-31T16:48:15.436Z,98382.00
2023-03-31T16:50:44.849Z,98378.00
2023-03-31T16:53:14.417Z,98379.00
2023-03-31T16:55:42.014Z,98372.00
2023-03-31T16:58:09.317Z,98377.00
2023-03-31T17:00:39.392Z,98379.00
2023-03-31T17:03:08.103Z,98378.00
2023-03-31T17:05:39.167Z,98371.00
2023-03-31T17:08:07.749Z,98380.00
2023-03-31T17:10:35.753Z,98380.00
2023-03-31T17:13:03.354Z,98387.00
2023-03-31T17:15:30.834Z,98383.00
2023-03-31T17:17:58.510Z,98374.00
2023-03-31T17:20:25.826Z,98370.00
2023-03-31T17:22:53.767Z,98372.00
2023-03-31T17:25:21.741Z,98376.00
2023-03-31T17:27:49.702Z,98375.00
2023-03-31T17:30:17.084Z,98367.00
2023-03-31T17:32:44.453Z,98359.00
2023-03-31T17:35:12.661Z,98371.00
2023-03-31T17:37:40.621Z,98363.00
2023-03-31T17:40:09.430Z,98357.00
2023-03-31T17:42:37.381Z,98366.00
2023-03-31T17:45:08.036Z,98366.00
2023-03-31T17:47:35.429Z,98366.00
2023-03-31T17:50:05.570Z,98378.00
2023-03-31T17:52:41.101Z,98389.00
2023-03-31T17:55:13.481Z,98386.00
2023-03-31T17:57:46.389Z,98376.00
2023-03-31T18:00:20.927Z,98390.00
2023-03-31T18:02:51.699Z,98386.00
2023-03-31T18:05:22.874Z,98392.00
2023-03-31T18:07:51.198Z,98389.00
2023-03-31T18:10:22.263Z,98394.00
2023-03-31T18:12:49.698Z,98404.00
2023-03-31T18:15:19.784Z,98404.00
2023-03-31T18:17:47.116Z,98410.00
2023-03-31T18:20:14.476Z,98415.00
2023-03-31T18:22:41.795Z,98422.00
2023-03-31T18:25:26.716Z,98418.00
2023-03-31T18:27:56.702Z,98424.00
2023-03-31T18:30:27.952Z,98428.00
2023-03-31T18:32:55.517Z,98424.00
2023-03-31T18:35:29.156Z,98428.00
2023-03-31T18:37:59.761Z,98433.00
2023-03-31T18:40:27.184Z,98432.00
2023-03-31T18:42:57.258Z,98433.00
2023-03-31T18:45:31.226Z,98434.00
2023-03-31T18:47:58.719Z,98432.00
2023-03-31T18:50:26.168Z,98432.00
2023-03-31T18:52:56.464Z,98430.00
2023-03-31T18:55:23.866Z,98430.00
2023-03-31T18:57:53.177Z,98435.00
2023-03-31T19:00:24.735Z,98428.00
2023-03-31T19:02:55.845Z,98428.00
2023-03-31T19:05:23.510Z,98431.00
2023-03-31T19:07:53.986Z,98429.00
2023-03-31T19:10:21.564Z,98426.00
2023-03-31T19:12:49.286Z,98426.00
2023-03-31T19:15:17.619Z,98427.00
2023-03-31T19:17:45.820Z,98431.00
2023-03-31T19:20:16.246Z,98434.00
2023-03-31T19:22:44.178Z,98433.00
2023-03-31T19:25:16.574Z,98432.00
2023-03-31T19:27:45.387Z,98434.00
2023-03-31T19:30:17.495Z,98429.00
2023-03-31T19:32:46.609Z,98424.00
2023-03-31T19:35:15.453Z,98424.00
2023-03-31T19:37:47.988Z,98421.00
2023-03-31T19:40:18.857Z,98426.00
2023-03-31T19:42:51.930Z,98422.00
2023-03-31T19:45:22.317Z,98426.00
2023-03-31T19:47:52.317Z,98436.00
2023-03-31T19:50:23.474Z,98434.00
2023-03-31T19:52:53.322Z,98434.00
2023-03-31T19:55:23.331Z,98442.00
2023-03-31T19:57:53.257Z,98445.00
2023-03-31T20:00:21.129Z,98435.00
2023-03-31T20:02:48.872Z,98434.00
2023-03-31T20:05:16.708Z,98441.00
2023-03-31T20:07:45.377Z,98443.00
2023-03-31T20:10:15.308Z,98437.00
2023-03-31T20:12:45.008Z,98446.00
2023-03-31T20:15:20.922Z,98440.00
2023-03-31T20:17:48.300Z,98441.00
2023-03-31T20:20:20.785Z,98445.00
2023-03-31T20:22:48.955Z,98449.00
2023-03-31T20:25:16.484Z,98447.00
2023-03-31T20:27:44.258Z,98442.00
2023-03-31T20:30:11.905Z,98442.00
2023-03-31T20:32:40.741Z,98446.00
2023-03-31T20:35:08.916Z,98445.00
2023-03-31T20:37:38.911Z,98439.00
2023-03-31T20:40:10.169Z,98439.00
2023-03-31T20:42:37.510Z,98444.00
2023-03-31T20:45:13.076Z,98446.00
2023-03-31T20:47:41.360Z,98436.00
2023-03-31T20:50:12.552Z,98436.00
2023-03-31T20:52:47.406Z,98435.00
2023-03-31T20:55:21.917Z,98434.00
2023-03-31T20:58:03.680Z,98435.00
2023-03-31T21:00:41.647Z,98440.00
2023-03-31T21:04:11.898Z,98442.00
2023-03-31T21:06:45.207Z,98443.00
2023-03-31T21:09:16.432Z,98453.00
2023-03-31T21:11:50.047Z,98458.00
2023-03-31T21:14:24.128Z,98449.00
2023-03-31T21:16:56.347Z,98458.00
2023-03-31T21:19:26.550Z,98467.00
2023-03-31T21:21:56.642Z,98456.00
2023-03-31T21:24:32.724Z,98457.00
2023-03-31T21:27:03.899Z,98468.00
2023-03-31T21:29:35.979Z,98467.00
2023-03-31T21:32:15.224Z,98453.00
2023-03-31T21:34:47.456Z,98460.00
2023-03-31T21:37:21.050Z,98457.00
2023-03-31T21:39:51.250Z,98453.00
2023-03-31T21:42:19.529Z,98453.00
2023-03-31T21:44:58.267Z,98453.00
2023-03-31T21:47:28.277Z,98455.00
2023-03-31T21:49:56.028Z,98462.00
2023-03-31T21:52:23.953Z,98456.00
2023-03-31T21:54:55.744Z,98458.00
2023-03-31T21:57:30.226Z,98461.00
2023-03-31T21:59:58.176Z,98449.00
2023-03-31T22:02:30.163Z,98457.00
2023-03-31T22:04:57.947Z,98459.00
2023-03-31T22:07:33.993Z,98451.00
2023-03-31T22:10:01.633Z,98457.00
2023-03-31T22:12:31.227Z,98453.00
2023-03-31T22:14:58.793Z,98446.00
2023-03-31T22:17:27.266Z,98456.00
2023-03-31T22:19:54.996Z,98451.00
2023-03-31T22:22:22.997Z,98454.00
2023-03-31T22:24:50.619Z,98459.00
2023-03-31T22:27:18.472Z,98455.00
2023-03-31T22:29:47.090Z,98456.00
2023-03-31T22:32:19.160Z,98462.00
2023-03-31T22:34:46.683Z,98464.00
2023-03-31T22:37:14.105Z,98462.00
2023-03-31T22:39:41.800Z,98464.00
2023-03-31T22:42:09.162Z,98460.00
2023-03-31T22:44:39.472Z,98453.00
2023-03-31T22:47:07.571Z,98459.00
2023-03-31T22:49:35.146Z,98460.00
2023-03-31T22:52:02.484Z,98464.00
2023-03-31T22:54:29.922Z,98457.00
2023-03-31T22:56:57.170Z,98463.00
2023-03-31T22:59:24.508Z,98460.00
2023-03-31T23:01:52.871Z,98452.00
2023-03-31T23:04:22.422Z,98456.00
2023-03-31T23:06:50.033Z,98458.00
2023-03-31T23:09:17.647Z,98458.00
2023-03-31T23:11:45.004Z,98465.00
2023-03-31T23:14:12.595Z,98459.00
2023-03-31T23:16:40.430Z,98456.00
2023-03-31T23:19:08.163Z,98466.00
2023-03-31T23:21:36.485Z,98456.00
2023-03-31T23:24:05.536Z,98457.00
2023-03-31T23:26:34.619Z,98464.00
2023-03-31T23:29:01.921Z,98458.00
2023-03-31T23:31:31.046Z,98464.00
2023-03-31T23:33:59.156Z,98458.00
2023-03-31T23:36:28.612Z,98458.00
2023-03-31T23:38:58.461Z,98459.00
2023-03-31T23:41:25.901Z,98458.00
2023-03-31T23:43:57.130Z,98450.00
2023-03-31T23:46:25.131Z,98455.00
2023-03-31T23:48:54.152Z,98460.00
2023-03-31T23:51:21.818Z,98455.00
2023-03-31T23:53:49.542Z,98451.00
2023-03-31T23:56:17.849Z,98451.00
2023-03-31T23:58:45.303Z,98458.00
